Walsh, Illinois
Current Conditions -  °F | °C
As of 5:15 AM on Tuesday 21 Oct 2014 (Local Time) from KSAR Reporting Station
Clear Clear  
Wind Chill: 49°   Ceiling: Unl
Heat Index: 49°   Visibility: 10mi
Dew Point: 44°   Wind: 3mph
Humidity: 82%   Direction: 280°W
Pressure: 30.05"   Gusts: NA
Location:  38.09°N, 89.85°W
Report Text: KSAR 211015Z AUTO 28003KT 10SM CLR 10/07 A3005 RMK AO2 T00950065
Loading
Personal Weather Stations






























Interactive Weather Map
Tropical Storm Tracking
New forecast layout! Learn more

10-Day Weather Forecast

Advertisements
Track Severe Weather on mobile